Time;durP1;ratioP1;P1;durP2;ratioP2;P2;SDS_P1;SDS_P2;PMS_P1;PMS_P2;Temp;Humidity;BMP_temperature;BMP_pressure;BME280_temperature;BME280_humidity;BME280_pressure;Samples;Min_cycle;Max_cycle;Signal;HPM_P1;HPM_P2
2023/05/04 00:02:17;;;;;;;8.38;4.82;;;;;;;;;;5014871;28;20497;-78
2023/05/04 00:04:44;;;;;;;6.95;4.95;;;;;;;;;;4999620;28;20132;-79
2023/05/04 00:07:11;;;;;;;7.93;5.32;;;;;;;;;;4999140;28;20060;-79
2023/05/04 00:09:37;;;;;;;5.72;5.05;;;;;;;;;;4998901;28;20053;-78
2023/05/04 00:12:05;;;;;;;7.82;4.90;;;;;;;;;;4998618;28;20049;-79
2023/05/04 00:14:32;;;;;;;7.25;4.90;;;;;;;;;;4998672;28;20088;-79
2023/05/04 00:16:59;;;;;;;5.38;4.25;;;;;;;;;;4999627;28;20410;-79
2023/05/04 00:19:26;;;;;;;7.55;4.70;;;;;;;;;;5004618;28;20061;-79
2023/05/04 00:21:53;;;;;;;5.55;4.10;;;;;;;;;;5007021;28;20424;-79
2023/05/04 00:24:19;;;;;;;6.75;4.90;;;;;;;;;;5008809;28;20061;-80
2023/05/04 00:26:46;;;;;;;7.15;4.90;;;;;;;;;;5008867;28;20053;-79
2023/05/04 00:29:13;;;;;;;5.72;4.88;;;;;;;;;;5006026;28;20049;-79
2023/05/04 00:31:40;;;;;;;6.75;4.72;;;;;;;;;;5003298;28;20057;-79
2023/05/04 00:34:06;;;;;;;7.43;4.97;;;;;;;;;;5020561;28;20136;-80
2023/05/04 00:36:33;;;;;;;6.88;5.10;;;;;;;;;;5005017;28;20053;-79
2023/05/04 00:39:00;;;;;;;6.90;4.72;;;;;;;;;;5004771;28;20061;-79
2023/05/04 00:41:27;;;;;;;6.20;4.43;;;;;;;;;;5005786;28;20053;-79
2023/05/04 00:43:54;;;;;;;7.05;5.50;;;;;;;;;;5006113;28;20057;-79
2023/05/04 00:46:20;;;;;;;8.15;5.00;;;;;;;;;;5006032;28;20425;-79
2023/05/04 00:48:48;;;;;;;7.00;4.72;;;;;;;;;;4989745;28;20068;-79
2023/05/04 00:51:15;;;;;;;6.20;4.65;;;;;;;;;;5007087;28;20061;-80
2023/05/04 00:53:42;;;;;;;6.00;5.05;;;;;;;;;;5007072;28;20429;-79
2023/05/04 00:56:09;;;;;;;8.40;5.22;;;;;;;;;;5005796;28;20564;-79
2023/05/04 00:58:36;;;;;;;7.60;4.93;;;;;;;;;;5007799;28;20061;-79
2023/05/04 01:01:03;;;;;;;5.53;4.85;;;;;;;;;;5008055;28;20049;-79
2023/05/04 01:03:30;;;;;;;9.60;5.28;;;;;;;;;;5009195;28;20103;-79
2023/05/04 01:06:04;;;;;;;6.82;5.43;;;;;;;;;;4994270;28;20049;-79
2023/05/04 01:08:31;;;;;;;6.95;5.22;;;;;;;;;;5016444;28;20057;-79
2023/05/04 01:11:14;;;;;;;5.72;4.80;;;;;;;;;;4991696;28;20467;-78
2023/05/04 01:13:41;;;;;;;5.97;4.60;;;;;;;;;;5013996;28;20078;-78
2023/05/04 01:16:08;;;;;;;6.22;4.50;;;;;;;;;;4997582;28;20428;-79
2023/05/04 01:18:35;;;;;;;7.90;5.53;;;;;;;;;;4997803;28;20484;-78
2023/05/04 01:21:01;;;;;;;6.50;5.03;;;;;;;;;;5007279;28;20660;-79
2023/05/04 01:23:28;;;;;;;6.55;5.00;;;;;;;;;;5029585;28;20056;-79
2023/05/04 01:26:23;;;;;;;7.60;6.13;;;;;;;;;;5031947;28;20050;-80
2023/05/04 01:29:03;;;;;;;8.32;4.97;;;;;;;;;;5007225;28;20050;-79
2023/05/04 01:31:30;;;;;;;6.63;5.22;;;;;;;;;;5018167;28;20061;-79
2023/05/04 01:33:57;;;;;;;8.50;5.43;;;;;;;;;;5016499;28;20052;-79
2023/05/04 01:36:24;;;;;;;7.72;5.90;;;;;;;;;;5013263;28;20059;-79
2023/05/04 01:38:54;;;;;;;6.25;5.38;;;;;;;;;;5014211;28;20057;-79
2023/05/04 01:41:21;;;;;;;6.82;5.53;;;;;;;;;;5014977;28;20049;-81
2023/05/04 01:43:48;;;;;;;7.57;5.60;;;;;;;;;;5016471;28;20053;-80
2023/05/04 01:46:14;;;;;;;8.05;5.35;;;;;;;;;;5015691;28;20053;-79
2023/05/04 01:48:41;;;;;;;8.85;5.38;;;;;;;;;;5012230;28;20049;-79
2023/05/04 01:51:08;;;;;;;8.00;6.18;;;;;;;;;;5014268;28;20147;-79
2023/05/04 01:53:35;;;;;;;7.15;5.50;;;;;;;;;;5028970;28;20476;-78
2023/05/04 01:56:02;;;;;;;7.78;6.07;;;;;;;;;;5009567;28;20089;-78
2023/05/04 01:58:28;;;;;;;8.63;6.30;;;;;;;;;;5001564;28;20050;-78
2023/05/04 02:00:58;;;;;;;8.35;6.10;;;;;;;;;;4999453;28;20084;-80
2023/05/04 02:03:25;;;;;;;9.20;6.03;;;;;;;;;;5018773;28;20081;-79
2023/05/04 02:05:52;;;;;;;8.20;6.10;;;;;;;;;;5018341;28;20076;-79
2023/05/04 02:08:18;;;;;;;8.27;5.72;;;;;;;;;;5017403;28;20118;-79
2023/05/04 02:10:46;;;;;;;9.45;6.47;;;;;;;;;;5014162;28;20088;-79
2023/05/04 02:13:13;;;;;;;10.27;6.03;;;;;;;;;;4988957;28;20042;-79
2023/05/04 02:15:40;;;;;;;13.45;6.60;;;;;;;;;;5007992;28;20093;-78
2023/05/04 02:18:07;;;;;;;7.70;6.25;;;;;;;;;;5005499;28;20137;-78
2023/05/04 02:20:33;;;;;;;6.40;5.63;;;;;;;;;;4982610;28;20120;-78
2023/05/04 02:23:00;;;;;;;10.45;6.22;;;;;;;;;;4998428;28;20160;-78
2023/05/04 02:25:27;;;;;;;10.68;6.95;;;;;;;;;;4985130;28;20064;-79
2023/05/04 02:27:54;;;;;;;10.88;6.78;;;;;;;;;;4983482;28;20062;-78
2023/05/04 02:30:21;;;;;;;9.60;6.20;;;;;;;;;;4982590;28;20546;-78
2023/05/04 02:32:47;;;;;;;8.05;6.70;;;;;;;;;;4980939;28;20064;-78
2023/05/04 02:35:14;;;;;;;8.68;6.63;;;;;;;;;;5014078;28;20084;-78
2023/05/04 02:37:41;;;;;;;9.32;7.32;;;;;;;;;;4997152;28;20089;-78
2023/05/04 02:40:08;;;;;;;9.32;6.55;;;;;;;;;;4996972;28;20058;-78
2023/05/04 02:42:35;;;;;;;8.48;6.97;;;;;;;;;;4988913;28;20057;-79
2023/05/04 02:45:02;;;;;;;10.73;7.05;;;;;;;;;;4982682;28;20078;-78
2023/05/04 02:47:29;;;;;;;10.85;6.68;;;;;;;;;;5014140;28;20517;-78
2023/05/04 02:49:56;;;;;;;8.93;6.90;;;;;;;;;;5020497;28;20502;-78
2023/05/04 02:52:22;;;;;;;8.32;6.47;;;;;;;;;;5003087;28;20099;-79
2023/05/04 02:54:49;;;;;;;8.88;6.88;;;;;;;;;;5027516;28;20049;-80
2023/05/04 02:57:18;;;;;;;8.25;6.75;;;;;;;;;;5015708;28;20076;-80
2023/05/04 02:59:45;;;;;;;9.88;6.93;;;;;;;;;;5030535;28;20057;-79
2023/05/04 03:02:12;;;;;;;8.00;6.88;;;;;;;;;;5031855;28;20065;-80
2023/05/04 03:04:39;;;;;;;9.20;7.78;;;;;;;;;;5018617;28;20046;-78
2023/05/04 03:07:07;;;;;;;13.00;7.90;;;;;;;;;;4980998;28;20137;-78
2023/05/04 03:09:34;;;;;;;11.20;8.23;;;;;;;;;;4996695;28;20470;-79
2023/05/04 03:12:02;;;;;;;10.10;7.75;;;;;;;;;;5005374;28;20065;-78
2023/05/04 03:14:30;;;;;;;10.98;7.57;;;;;;;;;;4985533;28;20537;-79
2023/05/04 03:16:57;;;;;;;10.48;8.13;;;;;;;;;;4967968;28;20096;-79
2023/05/04 03:19:24;;;;;;;11.15;7.53;;;;;;;;;;4965311;28;20112;-79
2023/05/04 03:21:51;;;;;;;9.02;7.57;;;;;;;;;;4981226;28;20050;-78
2023/05/04 03:24:18;;;;;;;10.48;7.63;;;;;;;;;;5013368;28;20399;-79
2023/05/04 03:26:46;;;;;;;15.57;8.63;;;;;;;;;;5012656;28;20050;-79
2023/05/04 03:29:12;;;;;;;11.55;8.27;;;;;;;;;;4996713;28;20418;-79
2023/05/04 03:31:39;;;;;;;11.95;7.63;;;;;;;;;;5013126;28;20058;-79
2023/05/04 03:34:08;;;;;;;10.80;7.80;;;;;;;;;;4998311;28;20085;-78
2023/05/04 03:36:35;;;;;;;12.25;7.70;;;;;;;;;;5012179;28;20089;-78
2023/05/04 03:39:02;;;;;;;10.68;7.90;;;;;;;;;;5013796;28;20056;-78
2023/05/04 03:41:28;;;;;;;13.73;7.72;;;;;;;;;;4996153;28;20581;-78
2023/05/04 03:43:55;;;;;;;11.32;7.53;;;;;;;;;;5014150;28;20145;-80
2023/05/04 03:46:22;;;;;;;12.88;8.52;;;;;;;;;;5011678;28;20029;-79
2023/05/04 03:48:49;;;;;;;9.55;7.35;;;;;;;;;;5010257;28;20054;-79
2023/05/04 03:51:16;;;;;;;10.68;7.22;;;;;;;;;;5004276;28;20053;-79
2023/05/04 03:53:42;;;;;;;10.45;8.93;;;;;;;;;;5011145;28;20049;-80
2023/05/04 03:56:10;;;;;;;17.50;12.95;;;;;;;;;;4981219;28;20058;-80
2023/05/04 03:58:37;;;;;;;16.02;10.77;;;;;;;;;;4979364;28;20057;-80
2023/05/04 04:01:04;;;;;;;15.90;10.65;;;;;;;;;;4979537;28;20054;-80
2023/05/04 04:03:30;;;;;;;12.60;10.02;;;;;;;;;;4994123;28;20080;-79
2023/05/04 04:05:57;;;;;;;11.85;9.85;;;;;;;;;;4990560;28;20065;-80
2023/05/04 04:08:25;;;;;;;13.68;9.68;;;;;;;;;;4992097;28;20090;-80
2023/05/04 04:10:51;;;;;;;10.68;8.93;;;;;;;;;;5007599;28;20060;-80
2023/05/04 04:13:18;;;;;;;13.57;8.75;;;;;;;;;;5013095;28;20139;-80
2023/05/04 04:15:45;;;;;;;15.23;10.05;;;;;;;;;;5016573;28;20049;-80
2023/05/04 04:18:12;;;;;;;13.20;8.50;;;;;;;;;;5013884;28;20068;-79
2023/05/04 04:20:39;;;;;;;13.45;8.70;;;;;;;;;;5010838;28;20051;-79
2023/05/04 04:23:06;;;;;;;11.70;9.50;;;;;;;;;;5005132;28;20168;-79
2023/05/04 04:25:32;;;;;;;11.77;8.70;;;;;;;;;;5017014;28;20710;-78
2023/05/04 04:27:59;;;;;;;10.68;8.55;;;;;;;;;;5018334;28;20065;-78
2023/05/04 04:30:26;;;;;;;13.90;8.30;;;;;;;;;;5009022;28;20460;-78
2023/05/04 04:32:55;;;;;;;11.63;8.40;;;;;;;;;;4998341;28;20053;-78
2023/05/04 04:35:22;;;;;;;8.73;7.38;;;;;;;;;;5002947;28;20484;-83
2023/05/04 04:37:50;;;;;;;19.65;9.80;;;;;;;;;;5004939;28;20053;-84
2023/05/04 04:40:17;;;;;;;11.80;8.20;;;;;;;;;;5002854;28;20426;-83
2023/05/04 04:42:43;;;;;;;16.08;8.98;;;;;;;;;;5020131;28;20539;-79
2023/05/04 04:45:11;;;;;;;12.95;8.43;;;;;;;;;;5000534;28;20053;-78
2023/05/04 04:47:38;;;;;;;12.57;8.50;;;;;;;;;;4985271;28;20089;-78
2023/05/04 04:50:06;;;;;;;10.90;8.40;;;;;;;;;;4993741;28;20058;-76
2023/05/04 04:52:33;;;;;;;9.80;7.70;;;;;;;;;;4985718;28;20049;-77
2023/05/04 04:55:00;;;;;;;11.20;8.23;;;;;;;;;;4997062;28;20050;-79
2023/05/04 04:57:27;;;;;;;9.85;7.43;;;;;;;;;;4978766;28;20072;-80
2023/05/04 04:59:57;;;;;;;11.48;7.47;;;;;;;;;;5009987;28;20425;-79
2023/05/04 05:02:24;;;;;;;10.02;8.35;;;;;;;;;;5010227;28;20137;-79
2023/05/04 05:04:50;;;;;;;12.82;7.55;;;;;;;;;;5009897;28;20688;-79
2023/05/04 05:07:17;;;;;;;9.45;8.40;;;;;;;;;;5010158;28;20064;-80
2023/05/04 05:09:44;;;;;;;13.60;8.05;;;;;;;;;;5011641;28;20064;-80
2023/05/04 05:12:11;;;;;;;12.40;8.70;;;;;;;;;;4993390;28;20054;-79
2023/05/04 05:14:38;;;;;;;10.00;8.00;;;;;;;;;;5005273;28;20513;-79
2023/05/04 05:17:04;;;;;;;15.13;8.48;;;;;;;;;;4966613;28;20080;-78
2023/05/04 05:19:36;;;;;;;10.02;8.18;;;;;;;;;;4996264;28;20054;-80
2023/05/04 05:22:03;;;;;;;10.63;7.78;;;;;;;;;;4998960;28;20132;-78
2023/05/04 05:24:30;;;;;;;13.27;8.68;;;;;;;;;;4984294;28;20285;-81
2023/05/04 05:26:57;;;;;;;9.45;8.40;;;;;;;;;;4969623;28;20061;-79
2023/05/04 05:29:24;;;;;;;11.73;8.57;;;;;;;;;;5010543;28;20045;-79
2023/05/04 05:31:51;;;;;;;10.13;8.57;;;;;;;;;;5017581;28;20048;-79
2023/05/04 05:34:18;;;;;;;10.77;8.50;;;;;;;;;;4996930;28;20086;-79
2023/05/04 05:36:44;;;;;;;10.13;8.88;;;;;;;;;;5001310;28;20045;-79
2023/05/04 05:39:11;;;;;;;10.63;8.27;;;;;;;;;;4999783;28;20053;-78
2023/05/04 05:41:38;;;;;;;11.68;8.20;;;;;;;;;;4999114;28;20053;-79
2023/05/04 05:44:05;;;;;;;10.60;8.32;;;;;;;;;;4999724;28;20053;-79
2023/05/04 05:46:31;;;;;;;10.52;8.32;;;;;;;;;;4992826;28;20049;-78
2023/05/04 05:48:58;;;;;;;12.95;9.07;;;;;;;;;;4992256;28;20056;-79
2023/05/04 05:51:25;;;;;;;10.73;8.45;;;;;;;;;;4984154;28;20108;-79
2023/05/04 05:53:52;;;;;;;12.63;8.43;;;;;;;;;;4988815;28;20118;-81
2023/05/04 05:56:19;;;;;;;11.90;7.93;;;;;;;;;;4984799;28;20494;-79
2023/05/04 05:58:45;;;;;;;10.48;8.45;;;;;;;;;;4982231;28;20062;-79
2023/05/04 06:01:13;;;;;;;13.63;8.50;;;;;;;;;;4980411;28;20064;-80
2023/05/04 06:03:40;;;;;;;12.32;8.60;;;;;;;;;;4980987;28;20046;-81
2023/05/04 06:06:07;;;;;;;11.15;8.85;;;;;;;;;;4982445;28;20089;-79
2023/05/04 06:08:34;;;;;;;14.68;9.63;;;;;;;;;;4981410;28;20118;-79
2023/05/04 06:11:00;;;;;;;11.18;8.05;;;;;;;;;;5013139;28;20053;-79
2023/05/04 06:13:27;;;;;;;9.60;8.18;;;;;;;;;;5008716;28;20062;-80
2023/05/04 06:15:54;;;;;;;12.05;9.05;;;;;;;;;;4979068;28;20072;-79
2023/05/04 06:18:21;;;;;;;11.20;8.48;;;;;;;;;;4997163;28;20064;-80
2023/05/04 06:20:48;;;;;;;13.05;8.57;;;;;;;;;;5018090;28;20049;-79
2023/05/04 06:23:15;;;;;;;13.13;9.32;;;;;;;;;;5005733;28;20510;-80
2023/05/04 06:25:42;;;;;;;12.07;8.15;;;;;;;;;;4979073;28;20049;-80
2023/05/04 06:28:08;;;;;;;14.50;9.38;;;;;;;;;;4981701;28;20061;-79
2023/05/04 06:30:35;;;;;;;12.98;9.27;;;;;;;;;;5004720;28;20140;-79
2023/05/04 06:33:03;;;;;;;12.88;9.60;;;;;;;;;;4993213;28;20137;-82
2023/05/04 06:35:30;;;;;;;13.25;9.38;;;;;;;;;;4996293;28;20055;-80
2023/05/04 06:37:57;;;;;;;14.73;9.52;;;;;;;;;;5003111;28;20424;-80
2023/05/04 06:40:25;;;;;;;12.95;9.23;;;;;;;;;;4997676;28;20140;-79
2023/05/04 06:42:52;;;;;;;10.27;9.25;;;;;;;;;;4998617;28;20054;-75
2023/05/04 06:45:19;;;;;;;11.40;8.98;;;;;;;;;;5029575;28;20096;-76
2023/05/04 06:47:46;;;;;;;12.15;9.70;;;;;;;;;;4986692;28;20136;-75
2023/05/04 06:50:13;;;;;;;13.40;9.32;;;;;;;;;;5007232;28;20418;-76
2023/05/04 06:52:42;;;;;;;11.52;9.23;;;;;;;;;;4992216;28;20084;-76
2023/05/04 06:55:09;;;;;;;13.45;9.25;;;;;;;;;;4960176;28;20054;-76
2023/05/04 06:57:36;;;;;;;12.70;9.60;;;;;;;;;;4991447;28;20060;-77
2023/05/04 07:00:03;;;;;;;10.13;8.75;;;;;;;;;;4995960;28;20057;-77
2023/05/04 07:02:30;;;;;;;10.02;8.95;;;;;;;;;;4998446;28;20053;-76
2023/05/04 07:04:57;;;;;;;10.73;9.23;;;;;;;;;;5012841;28;20736;-76
2023/05/04 07:07:24;;;;;;;9.95;8.07;;;;;;;;;;4995941;28;20516;-77
2023/05/04 07:09:51;;;;;;;11.07;8.63;;;;;;;;;;4998778;28;20058;-77
2023/05/04 07:12:17;;;;;;;8.48;7.53;;;;;;;;;;5015053;28;20064;-77
2023/05/04 07:14:44;;;;;;;13.70;8.52;;;;;;;;;;4996720;28;20054;-77
2023/05/04 07:17:12;;;;;;;10.85;8.25;;;;;;;;;;4997019;28;20050;-77
2023/05/04 07:19:40;;;;;;;11.52;8.88;;;;;;;;;;5018592;28;20058;-77
2023/05/04 07:22:06;;;;;;;8.50;7.60;;;;;;;;;;5021013;28;20048;-77
2023/05/04 07:24:33;;;;;;;9.50;7.50;;;;;;;;;;5006449;28;20084;-75
2023/05/04 07:27:00;;;;;;;9.07;7.72;;;;;;;;;;4997868;28;20067;-79
2023/05/04 07:29:27;;;;;;;10.02;7.82;;;;;;;;;;5012158;28;20125;-82
2023/05/04 07:31:54;;;;;;;8.43;7.28;;;;;;;;;;5001021;28;20046;-81
2023/05/04 07:34:21;;;;;;;9.10;7.00;;;;;;;;;;5024278;28;20164;-81
2023/05/04 07:36:59;;;;;;;11.85;8.20;;;;;;;;;;5011363;28;20144;-80
2023/05/04 07:39:26;;;;;;;7.75;6.75;;;;;;;;;;5006303;28;20124;-80
2023/05/04 07:41:53;;;;;;;9.77;7.72;;;;;;;;;;5020165;28;20088;-81
2023/05/04 07:44:20;;;;;;;7.50;6.75;;;;;;;;;;4988751;28;20568;-81
2023/05/04 07:46:47;;;;;;;7.75;6.95;;;;;;;;;;4997597;28;20452;-81
2023/05/04 07:49:14;;;;;;;10.52;6.57;;;;;;;;;;4994686;28;20064;-81
2023/05/04 07:51:41;;;;;;;7.47;5.82;;;;;;;;;;4966685;28;20133;-81
2023/05/04 07:54:08;;;;;;;7.70;6.93;;;;;;;;;;4995175;28;20085;-80
2023/05/04 07:56:34;;;;;;;8.82;6.60;;;;;;;;;;5004245;28;20052;-83
2023/05/04 07:59:01;;;;;;;7.95;6.65;;;;;;;;;;4999811;28;20064;-79
2023/05/04 08:01:28;;;;;;;7.05;5.88;;;;;;;;;;4992099;28;20550;-78
2023/05/04 08:03:55;;;;;;;7.47;6.20;;;;;;;;;;4986883;28;20054;-78
2023/05/04 08:06:22;;;;;;;7.40;6.13;;;;;;;;;;4988343;28;20044;-79
2023/05/04 08:08:49;;;;;;;7.47;6.30;;;;;;;;;;5000514;28;20093;-76
2023/05/04 08:11:18;;;;;;;6.85;5.80;;;;;;;;;;4986313;28;20057;-76
2023/05/04 08:13:48;;;;;;;7.35;5.93;;;;;;;;;;4984908;28;20402;-76
2023/05/04 08:16:15;;;;;;;7.63;5.35;;;;;;;;;;4969866;28;20397;-76
2023/05/04 08:18:42;;;;;;;7.13;5.40;;;;;;;;;;4990986;28;20149;-77
2023/05/04 08:21:09;;;;;;;6.47;5.22;;;;;;;;;;4991889;28;20054;-77
2023/05/04 08:23:36;;;;;;;6.97;5.25;;;;;;;;;;4986504;28;20055;-77
2023/05/04 08:26:03;;;;;;;6.00;5.10;;;;;;;;;;5005893;28;20088;-76
2023/05/04 08:28:34;;;;;;;8.57;5.07;;;;;;;;;;4974171;28;20085;-76
2023/05/04 08:31:02;;;;;;;6.25;5.55;;;;;;;;;;4983833;28;20073;-77
2023/05/04 08:33:30;;;;;;;6.45;4.95;;;;;;;;;;4997534;28;20418;-77
2023/05/04 08:35:57;;;;;;;6.13;5.53;;;;;;;;;;4981565;28;20576;-77
2023/05/04 08:38:24;;;;;;;5.93;5.32;;;;;;;;;;4982870;28;20129;-77
2023/05/04 08:40:52;;;;;;;6.80;5.20;;;;;;;;;;4991506;28;20034;-77
2023/05/04 08:43:19;;;;;;;6.07;5.05;;;;;;;;;;4989021;28;20046;-76
2023/05/04 08:45:48;;;;;;;5.72;4.80;;;;;;;;;;4989451;28;20134;-82
2023/05/04 08:48:15;;;;;;;4.63;4.15;;;;;;;;;;4975606;28;20068;-84
2023/05/04 08:50:42;;;;;;;5.18;4.55;;;;;;;;;;4993611;28;20056;-83
2023/05/04 08:53:11;;;;;;;9.10;4.88;;;;;;;;;;4992587;28;20050;-83
2023/05/04 08:55:38;;;;;;;4.80;3.90;;;;;;;;;;4983639;28;20060;-80
2023/05/04 08:58:09;;;;;;;6.28;4.60;;;;;;;;;;5003735;28;20089;-79
2023/05/04 09:00:37;;;;;;;5.55;3.83;;;;;;;;;;4993891;28;20096;-79
2023/05/04 09:03:05;;;;;;;4.90;4.43;;;;;;;;;;4986327;28;20514;-82
2023/05/04 09:05:32;;;;;;;4.93;4.45;;;;;;;;;;4985026;28;20092;-81
2023/05/04 09:07:59;;;;;;;4.78;3.65;;;;;;;;;;4982564;28;20104;-79
2023/05/04 09:10:26;;;;;;;3.83;3.38;;;;;;;;;;4982627;28;20495;-79
2023/05/04 09:12:55;;;;;;;6.78;3.53;;;;;;;;;;4984225;28;20120;-78
2023/05/04 09:15:23;;;;;;;3.63;3.33;;;;;;;;;;5002383;28;20046;-79
2023/05/04 09:17:56;;;;;;;3.83;3.47;;;;;;;;;;5003822;28;20415;-79
2023/05/04 09:20:24;;;;;;;5.03;3.33;;;;;;;;;;4990575;28;20046;-78
2023/05/04 09:23:07;;;;;;;6.35;3.13;;;;;;;;;;4984543;28;20054;-78
2023/05/04 09:25:49;;;;;;;;;;;;;;;;;;5006614;28;20129;-79
2023/05/04 09:28:17;;;;;;;7.10;3.30;;;;;;;;;;4984084;28;20313;-78
2023/05/04 09:30:45;;;;;;;4.05;3.00;;;;;;;;;;4999202;28;20132;-79
2023/05/04 09:33:12;;;;;;;3.28;2.97;;;;;;;;;;4984213;28;20142;-79
2023/05/04 09:35:40;;;;;;;5.75;3.42;;;;;;;;;;4972048;28;20046;-79
2023/05/04 09:38:07;;;;;;;3.25;2.95;;;;;;;;;;4966303;28;20054;-79
2023/05/04 09:40:35;;;;;;;3.25;2.95;;;;;;;;;;4985002;28;20069;-79
2023/05/04 09:43:02;;;;;;;3.17;2.92;;;;;;;;;;4973564;28;20076;-78
2023/05/04 09:45:43;;;;;;;3.53;2.80;;;;;;;;;;4985514;28;20050;-80
2023/05/04 09:48:16;;;;;;;3.78;2.88;;;;;;;;;;4987792;28;20066;-80
2023/05/04 09:50:56;;;;;;;4.63;2.90;;;;;;;;;;4971808;28;20046;-82
2023/05/04 09:53:26;;;;;;;4.07;3.05;;;;;;;;;;4992464;28;20490;-82
2023/05/04 09:56:17;;;;;;;3.13;2.85;;;;;;;;;;4977486;28;20153;-82
2023/05/04 09:58:46;;;;;;;3.63;2.88;;;;;;;;;;4985261;28;20088;-82
2023/05/04 10:01:20;;;;;;;4.53;3.10;;;;;;;;;;5000389;28;20156;-82
2023/05/04 10:03:48;;;;;;;3.33;3.03;;;;;;;;;;4963358;28;20057;-82
2023/05/04 10:06:16;;;;;;;4.72;3.15;;;;;;;;;;4982320;28;20073;-82
2023/05/04 10:08:44;;;;;;;4.32;2.92;;;;;;;;;;4984471;28;20053;-82
2023/05/04 10:11:11;;;;;;;3.47;2.60;;;;;;;;;;4977602;28;20060;-82
2023/05/04 10:13:38;;;;;;;6.45;2.55;;;;;;;;;;4995836;28;20518;-81
2023/05/04 10:16:31;;;;;;;3.67;3.03;;;;;;;;;;4993835;28;20546;-82
2023/05/04 10:19:45;;;;;;;4.18;2.80;;;;;;;;;;4975128;28;20054;-80
2023/05/04 10:22:13;;;;;;;5.00;2.63;;;;;;;;;;4994895;28;20058;-80
2023/05/04 10:25:01;;;;;;;3.80;2.60;;;;;;;;;;4995830;28;20069;-80
2023/05/04 10:27:53;;;;;;;5.10;2.65;;;;;;;;;;4988075;28;20046;-81
2023/05/04 10:30:29;;;;;;;3.75;3.28;;;;;;;;;;4989149;28;20540;-80
2023/05/04 10:32:57;;;;;;;4.20;2.60;;;;;;;;;;4989822;28;20144;-80
2023/05/04 10:35:24;;;;;;;4.72;2.70;;;;;;;;;;4990477;28;20060;-80
2023/05/04 10:37:53;;;;;;;2.85;2.50;;;;;;;;;;5007561;28;20073;-85
2023/05/04 10:40:36;;;;;;;3.00;2.70;;;;;;;;;;4983182;28;20057;-80
2023/05/04 10:43:06;;;;;;;2.40;2.20;;;;;;;;;;4978831;28;20145;-80
2023/05/04 10:45:40;;;;;;;2.50;2.30;;;;;;;;;;4980126;28;20057;-80
2023/05/04 10:48:07;;;;;;;4.20;2.47;;;;;;;;;;4979719;28;20066;-80
2023/05/04 10:50:45;;;;;;;3.33;2.47;;;;;;;;;;4981739;28;20058;-79
2023/05/04 10:53:14;;;;;;;3.00;2.30;;;;;;;;;;4980941;28;20089;-80
2023/05/04 10:55:45;;;;;;;2.63;2.30;;;;;;;;;;5000385;28;20068;-80
2023/05/04 10:58:15;;;;;;;2.70;2.50;;;;;;;;;;5000947;28;20403;-79
2023/05/04 11:00:46;;;;;;;2.83;2.53;;;;;;;;;;4982999;28;20116;-77
2023/05/04 11:03:13;;;;;;;2.30;1.92;;;;;;;;;;4996813;28;20045;-77
2023/05/04 11:05:45;;;;;;;3.42;2.63;;;;;;;;;;4999000;28;20421;-77
2023/05/04 11:08:15;;;;;;;2.30;2.10;;;;;;;;;;5004691;28;20104;-77
2023/05/04 11:10:42;;;;;;;2.95;2.50;;;;;;;;;;4996566;28;20522;-78
2023/05/04 11:13:12;;;;;;;2.83;2.50;;;;;;;;;;5008129;28;20054;-78
2023/05/04 11:15:46;;;;;;;3.25;2.50;;;;;;;;;;4987181;28;20060;-79
2023/05/04 11:18:13;;;;;;;2.40;2.20;;;;;;;;;;4991507;28;20050;-78
2023/05/04 11:20:41;;;;;;;4.32;2.50;;;;;;;;;;4973421;28;20049;-78
2023/05/04 11:23:09;;;;;;;2.33;2.13;;;;;;;;;;4982484;28;20054;-78
2023/05/04 11:25:36;;;;;;;2.85;2.33;;;;;;;;;;4997040;28;20081;-76
2023/05/04 11:28:03;;;;;;;9.27;3.15;;;;;;;;;;4995261;28;20045;-76
2023/05/04 11:30:32;;;;;;;4.43;2.30;;;;;;;;;;4981782;28;20092;-76
2023/05/04 11:33:00;;;;;;;5.78;2.85;;;;;;;;;;4982061;28;20054;-76
2023/05/04 11:35:27;;;;;;;2.60;2.40;;;;;;;;;;4986051;28;20049;-77
2023/05/04 11:37:54;;;;;;;4.95;2.53;;;;;;;;;;4983201;28;20054;-76
2023/05/04 11:40:24;;;;;;;4.65;2.50;;;;;;;;;;4985393;28;20049;-77
2023/05/04 11:42:51;;;;;;;3.50;2.30;;;;;;;;;;4984245;28;20072;-76
2023/05/04 11:45:33;;;;;;;2.95;2.58;;;;;;;;;;4983033;28;20046;-76
2023/05/04 11:48:00;;;;;;;4.47;2.25;;;;;;;;;;4985536;28;20403;-77
2023/05/04 11:50:27;;;;;;;2.63;1.83;;;;;;;;;;4985895;28;20128;-77
2023/05/04 11:53:08;;;;;;;4.07;2.60;;;;;;;;;;4980074;28;20093;-76
2023/05/04 11:55:36;;;;;;;3.20;2.30;;;;;;;;;;4980017;28;20148;-75
2023/05/04 11:58:10;;;;;;;3.67;2.60;;;;;;;;;;4996041;28;20053;-74
2023/05/04 12:00:42;;;;;;;2.90;2.70;;;;;;;;;;4995513;28;20096;-74
2023/05/04 12:03:11;;;;;;;3.45;2.70;;;;;;;;;;4995855;28;20061;-75
2023/05/04 12:05:48;;;;;;;3.47;2.63;;;;;;;;;;4979745;28;20057;-75
2023/05/04 12:08:26;;;;;;;4.03;3.20;;;;;;;;;;4984460;28;20552;-74
2023/05/04 12:11:19;;;;;;;2.75;2.53;;;;;;;;;;4997851;28;20050;-74
2023/05/04 12:13:49;;;;;;;5.25;2.42;;;;;;;;;;4985613;28;20160;-75
2023/05/04 12:16:19;;;;;;;4.53;2.30;;;;;;;;;;4983450;28;20057;-74
2023/05/04 12:18:47;;;;;;;4.55;2.95;;;;;;;;;;5002995;28;20501;-74
2023/05/04 12:21:17;;;;;;;2.30;2.10;;;;;;;;;;4998485;28;20405;-77
2023/05/04 12:23:45;;;;;;;4.43;2.70;;;;;;;;;;4997563;28;20054;-76
2023/05/04 12:26:12;;;;;;;4.30;3.30;;;;;;;;;;5010638;28;20069;-77
2023/05/04 12:28:41;;;;;;;3.80;2.78;;;;;;;;;;5018454;28;20050;-75
2023/05/04 12:31:08;;;;;;;3.08;2.80;;;;;;;;;;4979780;28;20053;-75
2023/05/04 12:33:35;;;;;;;4.97;2.88;;;;;;;;;;4994860;28;20115;-75
2023/05/04 12:36:03;;;;;;;3.60;3.25;;;;;;;;;;5002606;28;20124;-76
2023/05/04 12:38:30;;;;;;;3.10;2.83;;;;;;;;;;4994722;28;20108;-75
2023/05/04 12:41:02;;;;;;;3.25;2.85;;;;;;;;;;4994793;28;20054;-75
2023/05/04 12:43:30;;;;;;;6.05;2.80;;;;;;;;;;4994847;28;20050;-76
2023/05/04 12:45:56;;;;;;;4.57;3.15;;;;;;;;;;4993936;28;20054;-76
2023/05/04 12:48:25;;;;;;;3.38;3.05;;;;;;;;;;4999512;28;20041;-76
2023/05/04 12:50:51;;;;;;;5.38;3.05;;;;;;;;;;4998094;28;20063;-76
2023/05/04 12:53:21;;;;;;;8.10;3.85;;;;;;;;;;5014508;28;20133;-75
2023/05/04 12:55:47;;;;;;;4.65;3.13;;;;;;;;;;5014196;28;20078;-76
2023/05/04 12:58:14;;;;;;;3.25;2.88;;;;;;;;;;5014095;28;20061;-76
2023/05/04 13:00:42;;;;;;;4.18;2.90;;;;;;;;;;5014073;28;20396;-76
2023/05/04 13:03:11;;;;;;;5.10;3.42;;;;;;;;;;5000720;28;20489;-76
2023/05/04 13:05:39;;;;;;;4.68;3.05;;;;;;;;;;4994262;28;20058;-76
2023/05/04 13:08:05;;;;;;;3.35;2.90;;;;;;;;;;4994363;28;20093;-76
2023/05/04 13:10:32;;;;;;;4.57;3.80;;;;;;;;;;4994112;28;20542;-76
2023/05/04 13:12:59;;;;;;;3.47;3.17;;;;;;;;;;4978232;28;20064;-76
2023/05/04 13:15:26;;;;;;;3.58;3.25;;;;;;;;;;4994392;28;20065;-76
2023/05/04 13:17:53;;;;;;;3.58;3.05;;;;;;;;;;4978102;28;20128;-76
2023/05/04 13:20:21;;;;;;;3.60;3.30;;;;;;;;;;4994407;28;20791;-76
2023/05/04 13:22:49;;;;;;;4.40;3.60;;;;;;;;;;4994344;28;20089;-76
2023/05/04 13:25:16;;;;;;;4.97;3.28;;;;;;;;;;4994106;28;20461;-76
2023/05/04 13:27:43;;;;;;;3.95;3.65;;;;;;;;;;4994189;28;20049;-76
2023/05/04 13:30:10;;;;;;;4.38;3.88;;;;;;;;;;4994490;28;20057;-81
2023/05/04 13:32:37;;;;;;;4.10;3.40;;;;;;;;;;4982906;28;20101;-75
2023/05/04 13:35:04;;;;;;;3.28;2.97;;;;;;;;;;5018134;28;20042;-75
2023/05/04 13:37:32;;;;;;;6.13;3.28;;;;;;;;;;4977257;28;20469;-75
2023/05/04 13:40:00;;;;;;;4.40;3.75;;;;;;;;;;4998984;28;20062;-74
2023/05/04 13:42:27;;;;;;;4.00;3.67;;;;;;;;;;4998338;28;20052;-75
2023/05/04 13:44:54;;;;;;;4.78;3.35;;;;;;;;;;4998267;28;20057;-74
2023/05/04 13:47:22;;;;;;;3.42;3.13;;;;;;;;;;5001207;28;20072;-75
2023/05/04 13:49:49;;;;;;;3.65;3.35;;;;;;;;;;4997082;28;20058;-74
2023/05/04 13:52:16;;;;;;;3.47;3.20;;;;;;;;;;4987072;28;20422;-74
2023/05/04 13:54:43;;;;;;;4.20;3.80;;;;;;;;;;4998271;28;20600;-75
2023/05/04 13:57:10;;;;;;;4.57;3.25;;;;;;;;;;4998766;28;20061;-75
2023/05/04 13:59:37;;;;;;;6.75;3.85;;;;;;;;;;5005031;28;20064;-75
2023/05/04 14:02:04;;;;;;;3.75;3.30;;;;;;;;;;5005542;28;20060;-77
2023/05/04 14:04:31;;;;;;;5.45;3.15;;;;;;;;;;4997483;28;20097;-78
2023/05/04 14:06:57;;;;;;;4.03;3.72;;;;;;;;;;5003668;28;20050;-79
2023/05/04 14:09:24;;;;;;;3.80;3.40;;;;;;;;;;4987910;28;20050;-78
2023/05/04 14:11:52;;;;;;;3.78;3.13;;;;;;;;;;5000309;28;20093;-78
2023/05/04 14:14:21;;;;;;;4.40;3.50;;;;;;;;;;5004022;28;20049;-77
2023/05/04 14:16:47;;;;;;;3.65;3.35;;;;;;;;;;5004311;28;20075;-78
2023/05/04 14:19:14;;;;;;;5.38;3.60;;;;;;;;;;5005227;28;20053;-78
2023/05/04 14:21:41;;;;;;;3.58;2.92;;;;;;;;;;5001336;28;20080;-79
2023/05/04 14:24:08;;;;;;;4.30;2.88;;;;;;;;;;5015273;28;20069;-77
2023/05/04 14:26:36;;;;;;;5.43;3.55;;;;;;;;;;4970563;28;20053;-78
2023/05/04 14:29:03;;;;;;;3.75;3.38;;;;;;;;;;5017022;28;20059;-77
2023/05/04 14:31:30;;;;;;;4.20;3.70;;;;;;;;;;5013325;28;20049;-78
2023/05/04 14:33:57;;;;;;;4.15;3.28;;;;;;;;;;5000273;28;20045;-77
2023/05/04 14:36:24;;;;;;;3.28;2.97;;;;;;;;;;4999217;28;20144;-78
2023/05/04 14:38:51;;;;;;;3.60;3.30;;;;;;;;;;5004249;28;20060;-78
2023/05/04 14:41:17;;;;;;;5.38;4.25;;;;;;;;;;5004406;28;20088;-80
2023/05/04 14:43:44;;;;;;;4.45;3.40;;;;;;;;;;4980830;28;20417;-78
2023/05/04 14:46:11;;;;;;;5.97;3.13;;;;;;;;;;4997419;28;20644;-78